createdAt,value
2023-02-19T00:00:58.219Z,5.84
2023-02-19T00:01:58.265Z,5.83
2023-02-19T00:02:58.185Z,5.83
2023-02-19T00:03:58.209Z,5.83
2023-02-19T00:04:58.252Z,5.81
2023-02-19T00:05:58.180Z,5.83
2023-02-19T00:06:58.176Z,5.83
2023-02-19T00:07:58.157Z,5.84
2023-02-19T00:08:58.154Z,5.83
2023-02-19T00:09:58.121Z,5.84
2023-02-19T00:10:58.099Z,5.85
2023-02-19T00:11:58.796Z,5.85
2023-02-19T00:12:58.159Z,5.87
2023-02-19T00:13:58.150Z,5.87
2023-02-19T00:14:58.158Z,5.87
2023-02-19T00:15:58.149Z,5.90
2023-02-19T00:16:58.042Z,5.90
2023-02-19T00:17:58.054Z,5.85
2023-02-19T00:18:58.024Z,5.85
2023-02-19T00:19:58.079Z,5.83
2023-02-19T00:20:57.999Z,5.83
2023-02-19T00:21:57.968Z,5.85
2023-02-19T00:22:57.961Z,5.81
2023-02-19T00:23:58.003Z,5.81
2023-02-19T00:24:57.933Z,5.83
2023-02-19T00:26:03.284Z,5.83
2023-02-19T00:26:58.906Z,5.85
2023-02-19T00:27:57.902Z,5.81
2023-02-19T00:28:57.904Z,5.83
2023-02-19T00:29:57.876Z,5.84
2023-02-19T00:30:57.888Z,5.85
2023-02-19T00:31:57.943Z,5.84
2023-02-19T00:32:57.907Z,5.85
2023-02-19T00:33:57.829Z,5.84
2023-02-19T00:34:57.825Z,5.85
2023-02-19T00:35:57.811Z,5.85
2023-02-19T00:36:57.800Z,5.85
2023-02-19T00:37:57.792Z,5.84
2023-02-19T00:38:57.789Z,5.85
2023-02-19T00:39:57.776Z,5.85
2023-02-19T00:40:57.726Z,5.87
2023-02-19T00:41:57.731Z,5.87
2023-02-19T00:42:57.724Z,5.85
2023-02-19T00:43:57.725Z,5.85
2023-02-19T00:44:57.707Z,5.83
2023-02-19T00:45:57.755Z,5.83
2023-02-19T00:46:57.668Z,5.83
2023-02-19T00:47:57.728Z,5.85
2023-02-19T00:48:57.649Z,5.85
2023-02-19T00:49:57.624Z,5.88
2023-02-19T00:50:57.608Z,5.84
2023-02-19T00:51:57.596Z,5.83
2023-02-19T00:52:57.576Z,5.83
2023-02-19T00:53:57.600Z,5.83
2023-02-19T00:54:57.566Z,5.83
2023-02-19T00:55:57.547Z,5.84
2023-02-19T00:56:57.557Z,5.84
2023-02-19T00:57:57.517Z,5.83
2023-02-19T00:58:57.508Z,5.84
2023-02-19T00:59:57.507Z,5.81
2023-02-19T01:00:57.465Z,5.80
2023-02-19T01:01:57.589Z,5.81
2023-02-19T01:02:57.457Z,5.80
2023-02-19T01:03:57.454Z,5.81
2023-02-19T01:04:57.476Z,5.83
2023-02-19T01:05:57.678Z,5.81
2023-02-19T01:06:57.400Z,5.84
2023-02-19T01:07:57.430Z,5.84
2023-02-19T01:08:57.371Z,5.81
2023-02-19T01:09:57.397Z,5.78
2023-02-19T01:10:57.344Z,5.80
2023-02-19T01:11:57.356Z,5.78
2023-02-19T01:12:57.338Z,5.78
2023-02-19T01:13:57.322Z,5.80
2023-02-19T01:14:57.325Z,5.78
2023-02-19T01:15:57.323Z,5.77
2023-02-19T01:16:57.273Z,5.78
2023-02-19T01:17:57.296Z,5.78
2023-02-19T01:18:57.257Z,5.81
2023-02-19T01:19:57.271Z,5.83
2023-02-19T01:20:57.217Z,5.81
2023-02-19T01:21:57.228Z,5.81
2023-02-19T01:22:57.221Z,5.83
2023-02-19T01:23:57.191Z,5.81
2023-02-19T01:24:57.200Z,5.80
2023-02-19T01:25:57.184Z,5.80
2023-02-19T01:26:57.167Z,5.83
2023-02-19T01:27:57.163Z,5.80
2023-02-19T01:28:57.156Z,5.77
2023-02-19T01:29:57.139Z,5.74
2023-02-19T01:30:57.129Z,5.70
2023-02-19T01:31:57.226Z,5.67
2023-02-19T01:32:57.082Z,5.69
2023-02-19T01:33:57.107Z,5.67
2023-02-19T01:34:57.086Z,5.69
2023-02-19T01:35:57.069Z,5.70
2023-02-19T01:36:57.044Z,5.73
2023-02-19T01:37:57.076Z,5.70
2023-02-19T01:38:57.964Z,5.69
2023-02-19T01:39:57.015Z,5.70
2023-02-19T01:40:56.998Z,5.73
2023-02-19T01:41:56.981Z,5.70
2023-02-19T01:42:56.951Z,5.67
2023-02-19T01:43:56.986Z,5.69
2023-02-19T01:44:56.967Z,5.66
2023-02-19T01:45:56.935Z,5.65
2023-02-19T01:46:56.941Z,5.65
2023-02-19T01:47:56.909Z,5.66
2023-02-19T01:48:56.899Z,5.66
2023-02-19T01:49:56.891Z,5.65
2023-02-19T01:50:56.863Z,5.65
2023-02-19T01:51:56.873Z,5.66
2023-02-19T01:52:56.840Z,5.66
2023-02-19T01:53:56.820Z,5.67
2023-02-19T01:54:56.863Z,5.67
2023-02-19T01:55:57.324Z,5.63
2023-02-19T01:56:56.819Z,5.62
2023-02-19T01:57:56.772Z,5.58
2023-02-19T01:58:56.816Z,5.48
2023-02-19T01:59:56.758Z,5.48
2023-02-19T02:00:56.793Z,5.42
2023-02-19T02:01:56.749Z,5.33
2023-02-19T02:02:56.738Z,5.33
2023-02-19T02:03:56.701Z,5.30
2023-02-19T02:04:56.714Z,5.30
2023-02-19T02:05:56.666Z,5.32
2023-02-19T02:06:56.691Z,5.33
2023-02-19T02:07:56.636Z,5.32
2023-02-19T02:08:56.647Z,5.32
2023-02-19T02:09:56.651Z,5.32
2023-02-19T02:10:56.614Z,5.29
2023-02-19T02:11:56.653Z,5.29
2023-02-19T02:12:56.600Z,5.30
2023-02-19T02:13:56.567Z,5.29
2023-02-19T02:14:56.583Z,5.29
2023-02-19T02:15:56.547Z,5.24
2023-02-19T02:16:56.582Z,5.27
2023-02-19T02:17:56.530Z,5.24
2023-02-19T02:18:56.595Z,5.24
2023-02-19T02:19:56.509Z,5.26
2023-02-19T02:20:56.490Z,5.27
2023-02-19T02:21:56.524Z,5.27
2023-02-19T02:22:56.478Z,5.23
2023-02-19T02:23:56.450Z,5.19
2023-02-19T02:24:56.505Z,5.17
2023-02-19T02:25:56.424Z,5.11
2023-02-19T02:26:56.427Z,5.11
2023-02-19T02:27:56.424Z,5.12
2023-02-19T02:28:56.403Z,5.14
2023-02-19T02:29:56.393Z,5.09
2023-02-19T02:30:56.414Z,5.09
2023-02-19T02:31:56.407Z,5.08
2023-02-19T02:32:56.328Z,5.08
2023-02-19T02:33:56.360Z,5.05
2023-02-19T02:34:56.305Z,5.06
2023-02-19T02:35:56.285Z,5.05
2023-02-19T02:36:56.307Z,5.08
2023-02-19T02:39:56.808Z,5.06
2023-02-19T02:40:56.879Z,5.04
2023-02-19T02:41:56.793Z,5.04
2023-02-19T02:42:56.779Z,5.02
2023-02-19T02:43:56.775Z,5.01
2023-02-19T02:44:56.789Z,5.01
2023-02-19T02:45:56.778Z,5.02
2023-02-19T02:46:56.735Z,5.04
2023-02-19T02:47:56.712Z,5.04
2023-02-19T02:48:56.747Z,4.99
2023-02-19T02:49:56.676Z,4.96
2023-02-19T02:50:56.792Z,4.96
2023-02-19T02:51:56.665Z,4.91
2023-02-19T02:52:56.653Z,4.90
2023-02-19T02:53:56.621Z,4.91
2023-02-19T02:54:56.626Z,4.90
2023-02-19T02:58:52.348Z,4.86
2023-02-19T02:59:52.293Z,4.84
2023-02-19T03:00:52.307Z,4.84
2023-02-19T03:01:52.274Z,4.79
2023-02-19T03:02:52.286Z,4.77
2023-02-19T03:03:52.229Z,4.80
2023-02-19T03:04:52.209Z,4.75
2023-02-19T03:05:52.199Z,4.75
2023-02-19T03:06:52.188Z,4.72
2023-02-19T03:07:52.196Z,4.72
2023-02-19T03:08:52.734Z,4.72
2023-02-19T03:09:52.164Z,4.72
2023-02-19T03:10:52.124Z,4.71
2023-02-19T03:11:52.128Z,4.74
2023-02-19T03:12:52.106Z,4.72
2023-02-19T03:13:52.097Z,4.69
2023-02-19T03:14:52.075Z,4.71
2023-02-19T03:15:52.103Z,4.68
2023-02-19T03:16:52.120Z,4.65
2023-02-19T03:17:52.057Z,4.62
2023-02-19T03:18:52.045Z,4.57
2023-02-19T03:19:52.023Z,4.53
2023-02-19T03:20:52.002Z,4.54
2023-02-19T03:21:52.008Z,4.56
2023-02-19T03:22:51.985Z,4.53
2023-02-19T03:23:51.985Z,4.50
2023-02-19T03:24:51.955Z,4.49
2023-02-19T03:25:51.949Z,4.46
2023-02-19T03:26:51.933Z,4.43
2023-02-19T03:27:51.921Z,4.43
2023-02-19T03:28:51.928Z,4.43
2023-02-19T03:29:51.898Z,4.43
2023-02-19T03:30:51.978Z,4.42
2023-02-19T03:31:51.975Z,4.38
2023-02-19T03:32:51.872Z,4.35
2023-02-19T03:33:51.875Z,4.34
2023-02-19T03:34:51.828Z,4.29
2023-02-19T03:35:51.829Z,4.26
2023-02-19T03:36:51.809Z,4.20
2023-02-19T03:37:51.798Z,4.16
2023-02-19T03:38:51.797Z,4.11
2023-02-19T03:39:51.780Z,4.06
2023-02-19T03:40:51.764Z,4.07
2023-02-19T03:41:51.743Z,4.08
2023-02-19T03:42:52.717Z,4.04
2023-02-19T03:43:51.719Z,4.04
2023-02-19T03:44:51.703Z,4.04
2023-02-19T03:45:51.738Z,4.00
2023-02-19T03:46:51.666Z,3.99
2023-02-19T03:47:51.665Z,3.96
2023-02-19T03:48:51.666Z,3.95
2023-02-19T03:49:51.630Z,3.95
2023-02-19T03:50:51.626Z,3.96
2023-02-19T03:51:51.627Z,3.96
2023-02-19T03:52:51.591Z,3.92
2023-02-19T03:53:51.594Z,3.92
2023-02-19T03:54:51.594Z,3.95
2023-02-19T03:55:51.609Z,3.93
2023-02-19T03:56:51.562Z,3.90
2023-02-19T03:57:51.599Z,3.90
2023-02-19T03:58:51.579Z,3.84
2023-02-19T03:59:51.604Z,3.78
2023-02-19T04:00:51.538Z,3.74
2023-02-19T04:01:51.533Z,3.64
2023-02-19T04:02:51.471Z,3.63
2023-02-19T04:03:51.478Z,3.57
2023-02-19T04:04:51.508Z,3.54
2023-02-19T04:05:51.458Z,3.50
2023-02-19T04:06:51.423Z,3.49
2023-02-19T04:07:51.424Z,3.50
2023-02-19T04:08:51.428Z,3.50
2023-02-19T04:09:51.426Z,3.50
2023-02-19T04:10:51.371Z,3.52
2023-02-19T04:11:51.398Z,3.50
2023-02-19T04:12:51.363Z,3.49
2023-02-19T04:13:51.365Z,3.50
2023-02-19T04:14:51.331Z,3.49
2023-02-19T04:15:51.321Z,3.53
2023-02-19T04:16:51.329Z,3.50
2023-02-19T04:17:51.293Z,3.50
2023-02-19T04:18:51.280Z,3.46
2023-02-19T04:19:51.281Z,3.50
2023-02-19T04:20:51.249Z,3.46
2023-02-19T04:21:51.259Z,3.44
2023-02-19T04:22:51.231Z,3.42
2023-02-19T04:23:51.240Z,3.42
2023-02-19T04:24:51.211Z,3.44
2023-02-19T04:25:51.202Z,3.39
2023-02-19T04:26:51.185Z,3.35
2023-02-19T04:27:51.179Z,3.39
2023-02-19T04:28:51.155Z,3.37
2023-02-19T04:29:51.146Z,3.35
2023-02-19T04:30:51.134Z,3.34
2023-02-19T04:31:51.178Z,3.31
2023-02-19T04:32:51.118Z,3.34
2023-02-19T04:33:51.120Z,3.34
2023-02-19T04:34:53.336Z,3.34
2023-02-19T04:35:51.071Z,3.35
2023-02-19T04:36:51.052Z,3.34
2023-02-19T04:37:51.050Z,3.35
2023-02-19T04:38:51.019Z,3.33
2023-02-19T04:39:51.030Z,3.31
2023-02-19T04:40:51.428Z,3.26
2023-02-19T04:41:50.999Z,3.25
2023-02-19T04:42:51.002Z,3.25
2023-02-19T04:43:50.982Z,3.25
2023-02-19T04:44:50.962Z,3.23
2023-02-19T04:45:50.967Z,3.20
2023-02-19T04:46:50.950Z,3.19
2023-02-19T04:47:50.939Z,3.17
2023-02-19T04:48:50.907Z,3.20
2023-02-19T04:49:50.899Z,3.19
2023-02-19T04:50:50.878Z,3.22
2023-02-19T04:51:50.892Z,3.22
2023-02-19T04:52:50.877Z,3.20
2023-02-19T04:53:50.866Z,3.23
2023-02-19T04:54:50.828Z,3.23
2023-02-19T04:55:50.824Z,3.22
2023-02-19T04:56:50.819Z,3.23
2023-02-19T04:57:50.823Z,3.19
2023-02-19T04:58:50.779Z,3.20
2023-02-19T04:59:50.778Z,3.22
2023-02-19T05:00:50.762Z,3.22
2023-02-19T05:01:50.841Z,3.22
2023-02-19T05:02:50.719Z,3.23
2023-02-19T05:03:50.730Z,3.22
2023-02-19T05:04:50.698Z,3.22
2023-02-19T05:05:50.708Z,3.20
2023-02-19T05:06:50.683Z,3.16
2023-02-19T05:07:50.677Z,3.10
2023-02-19T05:08:50.680Z,3.05
2023-02-19T05:09:50.652Z,3.05
2023-02-19T05:10:50.647Z,3.04
2023-02-19T05:11:50.628Z,3.05
2023-02-19T05:12:50.596Z,3.07
2023-02-19T05:13:50.617Z,3.05
2023-02-19T05:14:50.574Z,3.07
2023-02-19T05:15:50.590Z,3.10
2023-02-19T05:16:50.555Z,3.12
2023-02-19T05:17:50.550Z,3.12
2023-02-19T05:18:50.529Z,3.10
2023-02-19T05:19:50.527Z,3.07
2023-02-19T05:20:50.505Z,3.07
2023-02-19T05:21:50.505Z,3.08
2023-02-19T05:22:50.483Z,3.07
2023-02-19T05:23:50.483Z,3.05
2023-02-19T05:24:50.488Z,3.04
2023-02-19T05:25:50.497Z,3.05
2023-02-19T05:26:50.431Z,3.07
2023-02-19T05:27:50.445Z,3.07
2023-02-19T05:28:50.424Z,3.08
2023-02-19T05:29:50.402Z,3.05
2023-02-19T05:30:50.385Z,3.05
2023-02-19T05:31:50.516Z,3.02
2023-02-19T05:32:50.361Z,3.04
2023-02-19T05:33:50.361Z,3.04
2023-02-19T05:34:50.325Z,3.04
2023-02-19T05:35:50.350Z,3.01
2023-02-19T05:36:50.310Z,3.01
2023-02-19T05:37:50.292Z,3.04
2023-02-19T05:38:50.310Z,3.02
2023-02-19T05:39:50.281Z,3.04
2023-02-19T05:40:50.279Z,3.05
2023-02-19T05:41:50.264Z,3.02
2023-02-19T05:42:50.248Z,2.99
2023-02-19T05:43:50.225Z,2.99
2023-02-19T05:44:50.209Z,3.01
2023-02-19T05:45:50.233Z,3.02
2023-02-19T05:46:50.200Z,3.02
2023-02-19T05:47:50.166Z,3.01
2023-02-19T05:48:50.169Z,2.94
2023-02-19T05:49:50.150Z,2.94
2023-02-19T05:50:50.145Z,2.92
2023-02-19T05:51:50.127Z,2.90
2023-02-19T05:52:50.105Z,2.94
2023-02-19T05:53:50.106Z,2.94
2023-02-19T05:54:50.092Z,2.95
2023-02-19T05:55:50.064Z,2.97
2023-02-19T05:56:50.065Z,2.94
2023-02-19T05:57:50.055Z,2.94
2023-02-19T05:58:50.055Z,2.94
2023-02-19T05:59:50.053Z,2.95
2023-02-19T06:00:50.020Z,2.90
2023-02-19T06:01:50.032Z,2.92
2023-02-19T06:02:50.054Z,2.92
2023-02-19T06:03:50.029Z,2.97
2023-02-19T06:04:49.972Z,2.95
2023-02-19T06:05:49.945Z,2.95
2023-02-19T06:06:49.954Z,2.95
2023-02-19T06:07:49.942Z,2.89
2023-02-19T06:08:49.926Z,2.89
2023-02-19T06:09:50.084Z,2.86
2023-02-19T06:10:49.918Z,2.84
2023-02-19T06:11:49.890Z,2.86
2023-02-19T06:12:49.888Z,2.87
2023-02-19T06:13:49.852Z,2.89
2023-02-19T06:14:49.860Z,2.89
2023-02-19T06:15:50.628Z,2.94
2023-02-19T06:16:49.842Z,2.94
2023-02-19T06:17:49.814Z,2.90
2023-02-19T06:18:49.817Z,2.92
2023-02-19T06:19:49.776Z,2.90
2023-02-19T06:20:49.770Z,2.95
2023-02-19T06:21:49.767Z,2.97
2023-02-19T06:22:49.762Z,2.95
2023-02-19T06:23:49.726Z,2.94
2023-02-19T06:24:49.721Z,2.95
2023-02-19T06:25:49.704Z,2.97
2023-02-19T06:26:49.717Z,2.95
2023-02-19T06:27:49.681Z,2.97
2023-02-19T06:28:49.699Z,2.97
2023-02-19T06:29:49.671Z,2.98
2023-02-19T06:30:51.529Z,2.98
2023-02-19T06:31:49.664Z,2.98
2023-02-19T06:32:49.634Z,2.99
2023-02-19T06:33:49.609Z,2.99
2023-02-19T06:34:49.629Z,2.99
2023-02-19T06:35:49.609Z,2.94
2023-02-19T06:36:49.582Z,2.95
2023-02-19T06:37:49.546Z,2.94
2023-02-19T06:38:49.576Z,2.94
2023-02-19T06:39:49.527Z,2.94
2023-02-19T06:40:49.538Z,2.95
2023-02-19T06:41:49.519Z,2.98
2023-02-19T06:42:49.508Z,2.99
2023-02-19T06:43:49.487Z,2.99
2023-02-19T06:44:49.496Z,3.02
2023-02-19T06:45:49.457Z,3.04
2023-02-19T06:46:49.549Z,3.04
2023-02-19T06:47:49.428Z,3.07
2023-02-19T06:48:49.449Z,3.08
2023-02-19T06:49:49.410Z,3.22
2023-02-19T06:50:49.407Z,3.22
2023-02-19T06:51:49.390Z,3.23
2023-02-19T06:52:49.395Z,3.20
2023-02-19T06:53:49.362Z,3.23
2023-02-19T06:54:49.360Z,3.22
2023-02-19T06:55:49.326Z,3.19
2023-02-19T06:56:49.330Z,3.16
2023-02-19T06:57:49.315Z,3.12
2023-02-19T06:58:49.324Z,3.12
2023-02-19T06:59:49.321Z,3.12
2023-02-19T07:00:49.288Z,3.13
2023-02-19T07:01:49.252Z,3.13
2023-02-19T07:02:49.261Z,3.15
2023-02-19T07:03:49.314Z,3.16
2023-02-19T07:04:49.267Z,3.17
2023-02-19T07:05:49.221Z,3.20
2023-02-19T07:06:49.209Z,3.20
2023-02-19T07:07:49.177Z,3.25
2023-02-19T07:08:49.191Z,3.25
2023-02-19T07:09:49.157Z,3.26
2023-02-19T07:10:49.146Z,3.31
2023-02-19T07:11:49.123Z,3.28
2023-02-19T07:12:49.126Z,3.30
2023-02-19T07:13:49.098Z,3.33
2023-02-19T07:14:49.094Z,3.31
2023-02-19T07:15:51.143Z,3.33
2023-02-19T07:16:49.086Z,3.30
2023-02-19T07:17:49.064Z,3.33
2023-02-19T07:18:49.093Z,3.34
2023-02-19T07:19:49.034Z,3.31
2023-02-19T07:20:49.041Z,3.34
2023-02-19T07:21:49.012Z,3.34
2023-02-19T07:22:49.031Z,3.39
2023-02-19T07:23:48.987Z,3.39
2023-02-19T07:24:48.970Z,3.34
2023-02-19T07:25:48.963Z,3.37
2023-02-19T07:26:48.954Z,3.37
2023-02-19T07:27:48.922Z,3.39
2023-02-19T07:28:48.930Z,3.37
2023-02-19T07:29:48.898Z,3.39
2023-02-19T07:30:48.926Z,3.35
2023-02-19T07:31:48.907Z,3.33
2023-02-19T07:32:48.868Z,3.31
2023-02-19T07:33:48.852Z,3.33
2023-02-19T07:34:48.858Z,3.31
2023-02-19T07:35:48.823Z,3.28
2023-02-19T07:36:48.862Z,3.28
2023-02-19T07:37:48.802Z,3.34
2023-02-19T07:38:48.801Z,3.34
2023-02-19T07:39:48.771Z,3.37
2023-02-19T07:40:48.773Z,3.37
2023-02-19T07:41:48.753Z,3.37
2023-02-19T07:42:48.743Z,3.37
2023-02-19T07:43:48.720Z,3.42
2023-02-19T07:44:48.781Z,3.42
2023-02-19T07:45:48.729Z,3.42
2023-02-19T07:46:48.720Z,3.34
2023-02-19T07:47:48.672Z,3.34
2023-02-19T07:48:48.661Z,3.37
2023-02-19T07:49:48.649Z,3.41
2023-02-19T07:50:48.642Z,3.46
2023-02-19T07:51:48.668Z,3.46
2023-02-19T07:52:48.990Z,3.50
2023-02-19T07:53:49.459Z,3.53
2023-02-19T07:54:48.628Z,3.52
2023-02-19T07:55:48.599Z,3.46
2023-02-19T07:56:49.490Z,3.41
2023-02-19T07:57:48.586Z,3.39
2023-02-19T07:58:49.537Z,3.42
2023-02-19T07:59:48.543Z,3.46
2023-02-19T08:00:49.614Z,3.46
2023-02-19T08:01:48.521Z,3.46
2023-02-19T08:02:49.741Z,3.46
2023-02-19T08:03:50.445Z,3.52
2023-02-19T08:04:48.631Z,3.50
2023-02-19T08:05:48.664Z,3.45
2023-02-19T08:06:48.726Z,3.44
2023-02-19T08:07:48.764Z,3.45
2023-02-19T08:08:48.814Z,3.45
2023-02-19T08:09:48.855Z,3.49
2023-02-19T08:10:48.434Z,3.53
2023-02-19T08:11:48.931Z,3.62
2023-02-19T08:12:48.979Z,3.68
2023-02-19T08:13:49.022Z,3.68
2023-02-19T08:14:48.395Z,3.72
2023-02-19T08:15:49.109Z,3.68
2023-02-19T08:16:49.230Z,3.70
2023-02-19T08:17:48.308Z,3.74
2023-02-19T08:18:48.370Z,3.75
2023-02-19T08:19:48.464Z,3.71
2023-02-19T08:20:48.613Z,3.74
2023-02-19T08:21:48.745Z,3.74
2023-02-19T08:22:48.246Z,3.70
2023-02-19T08:23:50.859Z,3.74
2023-02-19T08:24:48.295Z,3.78
2023-02-19T08:25:48.201Z,3.84
2023-02-19T08:26:48.459Z,3.80
2023-02-19T08:27:48.440Z,3.78
2023-02-19T08:28:48.439Z,3.81
2023-02-19T08:29:48.479Z,3.82
2023-02-19T08:30:48.705Z,3.88
2023-02-19T08:31:48.670Z,3.86
2023-02-19T08:32:48.608Z,3.89
2023-02-19T08:33:48.704Z,3.86
2023-02-19T08:34:48.674Z,3.89
2023-02-19T08:35:48.093Z,3.90
2023-02-19T08:36:48.067Z,3.96
2023-02-19T08:37:48.144Z,4.00
2023-02-19T08:38:48.133Z,4.00
2023-02-19T08:39:48.192Z,4.04
2023-02-19T08:40:48.253Z,4.07
2023-02-19T08:41:47.983Z,4.28
2023-02-19T08:42:48.009Z,4.28
2023-02-19T08:43:47.991Z,4.29
2023-02-19T08:44:48.014Z,4.29
2023-02-19T08:45:48.201Z,4.35
2023-02-19T08:46:48.268Z,4.38
2023-02-19T08:47:48.381Z,4.32
2023-02-19T08:48:48.137Z,4.29
2023-02-19T08:49:48.607Z,4.29
2023-02-19T08:50:48.698Z,4.28
2023-02-19T08:51:48.317Z,4.25
2023-02-19T08:52:47.920Z,4.24
2023-02-19T08:53:47.860Z,4.28
2023-02-19T08:54:47.862Z,4.32
2023-02-19T08:55:47.824Z,4.36
2023-02-19T08:56:47.818Z,4.44
2023-02-19T08:57:49.774Z,4.44
2023-02-19T08:58:47.852Z,4.47
2023-02-19T08:59:47.783Z,4.50
2023-02-19T09:00:54.849Z,4.53
2023-02-19T09:01:48.839Z,4.53
2023-02-19T09:02:47.729Z,4.53
2023-02-19T09:03:47.729Z,4.50
2023-02-19T09:04:47.715Z,4.50
2023-02-19T09:05:47.695Z,4.53
2023-02-19T09:06:47.696Z,4.59
2023-02-19T09:07:47.664Z,4.64
2023-02-19T09:08:47.664Z,4.71
2023-02-19T09:09:47.716Z,4.71
2023-02-19T09:10:47.640Z,4.64
2023-02-19T09:11:49.298Z,4.59
2023-02-19T09:12:47.594Z,4.53
2023-02-19T09:13:47.620Z,4.53
2023-02-19T09:14:47.585Z,4.51
2023-02-19T09:15:47.739Z,4.43
2023-02-19T09:16:47.559Z,4.39
2023-02-19T09:17:47.534Z,4.42
2023-02-19T09:18:47.521Z,4.43
2023-02-19T09:19:50.006Z,4.47
2023-02-19T09:20:47.514Z,4.46
2023-02-19T09:21:47.513Z,4.50
2023-02-19T09:22:47.483Z,4.51
2023-02-19T09:23:47.576Z,4.57
2023-02-19T09:24:47.472Z,4.65
2023-02-19T09:25:47.440Z,4.74
2023-02-19T09:26:47.435Z,4.74
2023-02-19T09:27:47.431Z,4.69
2023-02-19T09:28:47.554Z,4.59
2023-02-19T09:29:47.390Z,4.61
2023-02-19T09:30:47.448Z,4.62
2023-02-19T09:31:47.555Z,4.64
2023-02-19T09:32:47.380Z,4.68
2023-02-19T09:33:47.362Z,4.69
2023-02-19T09:34:47.336Z,4.64
2023-02-19T09:35:47.343Z,4.67
2023-02-19T09:36:47.314Z,4.62
2023-02-19T09:37:47.309Z,4.64
2023-02-19T09:38:47.291Z,4.68
2023-02-19T09:39:47.274Z,4.72
2023-02-19T09:40:47.268Z,4.75
2023-02-19T09:41:47.245Z,4.79
2023-02-19T09:42:47.271Z,4.83
2023-02-19T09:43:47.248Z,4.80
2023-02-19T09:44:47.210Z,4.80
2023-02-19T09:45:48.237Z,4.90
2023-02-19T09:46:47.257Z,4.93
2023-02-19T09:47:47.169Z,4.96
2023-02-19T09:48:47.280Z,4.93
2023-02-19T09:49:47.151Z,4.96
2023-02-19T09:50:47.136Z,5.01
2023-02-19T09:51:47.116Z,5.01
2023-02-19T09:52:47.126Z,5.05
2023-02-19T09:53:47.086Z,5.12
2023-02-19T09:54:47.126Z,5.11
2023-02-19T09:55:47.105Z,5.09
2023-02-19T09:56:47.048Z,5.02
2023-02-19T09:57:47.065Z,5.02
2023-02-19T09:58:47.025Z,5.08
2023-02-19T09:59:47.053Z,5.19
2023-02-19T10:00:47.003Z,5.23
2023-02-19T10:01:47.036Z,5.24
2023-02-19T10:02:46.971Z,5.22
2023-02-19T10:03:47.023Z,5.17
2023-02-19T10:04:46.994Z,5.06
2023-02-19T10:05:46.946Z,5.02
2023-02-19T10:06:46.933Z,5.02
2023-02-19T10:07:46.920Z,4.99
2023-02-19T10:08:46.913Z,4.97
2023-02-19T10:09:46.901Z,4.91
2023-02-19T10:10:46.886Z,4.91
2023-02-19T10:11:46.869Z,4.99
2023-02-19T10:12:46.886Z,5.09
2023-02-19T10:13:46.836Z,5.17
2023-02-19T10:14:46.825Z,5.26
2023-02-19T10:15:46.857Z,5.33
2023-02-19T10:16:46.886Z,5.40
2023-02-19T10:17:46.803Z,5.55
2023-02-19T10:18:46.776Z,5.63
2023-02-19T10:19:46.770Z,5.60
2023-02-19T10:20:46.735Z,5.55
2023-02-19T10:21:46.787Z,5.45
2023-02-19T10:22:46.730Z,5.37
2023-02-19T10:23:46.716Z,5.32
2023-02-19T10:24:46.733Z,5.32
2023-02-19T10:25:46.717Z,5.32
2023-02-19T10:26:46.709Z,5.37
2023-02-19T10:27:46.672Z,5.45
2023-02-19T10:28:46.649Z,5.56
2023-02-19T10:29:46.676Z,5.69
2023-02-19T10:30:46.695Z,5.85
2023-02-19T10:31:46.717Z,5.93
2023-02-19T10:32:46.602Z,6.02
2023-02-19T10:33:46.669Z,6.11
2023-02-19T10:34:46.631Z,6.10
2023-02-19T10:35:46.554Z,6.16
2023-02-19T10:36:46.550Z,6.24
2023-02-19T10:37:46.552Z,6.27
2023-02-19T10:38:46.520Z,6.13
2023-02-19T10:39:46.529Z,5.93
2023-02-19T10:40:46.490Z,5.85
2023-02-19T10:41:46.493Z,5.87
2023-02-19T10:42:46.472Z,5.96
2023-02-19T10:43:46.474Z,5.92
2023-02-19T10:44:46.451Z,5.87
2023-02-19T10:45:46.451Z,5.87
2023-02-19T10:46:46.465Z,5.88
2023-02-19T10:47:46.424Z,5.96
2023-02-19T10:48:46.391Z,6.05
2023-02-19T10:49:46.581Z,6.11
2023-02-19T10:50:46.432Z,6.13
2023-02-19T10:51:46.404Z,6.24
2023-02-19T10:52:46.411Z,6.20
2023-02-19T10:53:46.362Z,6.13
2023-02-19T10:54:46.352Z,6.16
2023-02-19T10:55:46.322Z,6.28
2023-02-19T10:56:46.316Z,6.38
2023-02-19T10:57:46.296Z,6.39
2023-02-19T10:58:46.270Z,6.46
2023-02-19T10:59:46.285Z,6.57
2023-02-19T11:00:46.237Z,6.61
2023-02-19T11:01:46.289Z,6.54
2023-02-19T11:02:46.220Z,6.48
2023-02-19T11:03:46.227Z,6.42
2023-02-19T11:04:46.227Z,6.40
2023-02-19T11:05:46.185Z,6.36
2023-02-19T11:06:46.165Z,6.28
2023-02-19T11:07:46.181Z,6.13
2023-02-19T11:08:46.169Z,6.13
2023-02-19T11:09:46.186Z,6.21
2023-02-19T11:10:46.103Z,6.21
2023-02-19T11:11:46.124Z,6.28
2023-02-19T11:12:46.081Z,6.42
2023-02-19T11:13:46.079Z,6.42
2023-02-19T11:14:46.101Z,6.40
2023-02-19T11:15:46.064Z,6.43
2023-02-19T11:16:46.027Z,6.43
2023-02-19T11:17:46.035Z,6.50
2023-02-19T11:18:46.012Z,6.46
2023-02-19T11:19:46.051Z,6.51
2023-02-19T11:20:46.010Z,6.55
2023-02-19T11:21:45.991Z,6.55
2023-02-19T11:22:45.961Z,6.46
2023-02-19T11:23:45.960Z,6.43
2023-02-19T11:24:45.943Z,6.36
2023-02-19T11:25:45.931Z,6.30
2023-02-19T11:26:45.904Z,6.30
2023-02-19T11:27:45.904Z,6.28
2023-02-19T11:28:45.888Z,6.35
2023-02-19T11:29:45.885Z,6.42
2023-02-19T11:30:45.880Z,6.43
2023-02-19T11:31:45.938Z,6.48
2023-02-19T11:32:45.921Z,6.57
2023-02-19T11:33:45.828Z,6.64
2023-02-19T11:34:45.800Z,6.75
2023-02-19T11:35:45.819Z,6.78
2023-02-19T11:36:45.769Z,6.79
2023-02-19T11:37:45.808Z,6.76
2023-02-19T11:38:45.770Z,6.86
2023-02-19T11:39:45.753Z,6.91
2023-02-19T11:40:45.724Z,7.07
2023-02-19T11:41:45.793Z,6.97
2023-02-19T11:42:45.730Z,6.86
2023-02-19T11:43:45.730Z,6.83
2023-02-19T11:44:45.689Z,6.91
2023-02-19T11:45:45.702Z,6.87
2023-02-19T11:46:45.714Z,6.82
2023-02-19T11:47:45.655Z,6.79
2023-02-19T11:48:45.652Z,6.86
2023-02-19T11:49:45.634Z,6.73
2023-02-19T11:50:45.624Z,6.68
2023-02-19T11:51:51.479Z,6.69
2023-02-19T11:52:46.813Z,6.72
2023-02-19T11:53:47.078Z,6.73
2023-02-19T11:54:45.590Z,6.64
2023-02-19T11:55:45.556Z,6.60
2023-02-19T11:56:45.547Z,6.64
2023-02-19T11:57:45.531Z,6.72
2023-02-19T11:58:45.535Z,6.73
2023-02-19T11:59:45.509Z,6.60
2023-02-19T12:00:45.509Z,6.55
2023-02-19T12:01:45.506Z,6.68
2023-02-19T12:02:46.355Z,6.68
2023-02-19T12:03:45.444Z,6.69
2023-02-19T12:04:45.546Z,6.65
2023-02-19T12:05:45.414Z,6.64
2023-02-19T12:06:45.408Z,6.64
2023-02-19T12:07:45.395Z,6.65
2023-02-19T12:08:45.372Z,6.58
2023-02-19T12:09:45.382Z,6.57
2023-02-19T12:10:45.343Z,6.45
2023-02-19T12:11:45.428Z,6.45
2023-02-19T12:12:45.312Z,6.54
2023-02-19T12:13:45.319Z,6.57
2023-02-19T12:14:45.370Z,6.69
2023-02-19T12:15:45.358Z,6.83
2023-02-19T12:16:45.349Z,6.82
2023-02-19T12:17:45.262Z,6.83
2023-02-19T12:18:45.240Z,6.91
2023-02-19T12:19:45.288Z,6.94
2023-02-19T12:20:45.220Z,7.04
2023-02-19T12:21:45.268Z,7.21
2023-02-19T12:22:45.210Z,7.14
2023-02-19T12:23:45.207Z,7.04
2023-02-19T12:24:45.208Z,7.09
2023-02-19T12:25:45.229Z,6.93
2023-02-19T12:26:45.294Z,6.91
2023-02-19T12:27:45.187Z,7.07
2023-02-19T12:28:45.116Z,7.16
2023-02-19T12:29:45.137Z,7.12
2023-02-19T12:30:45.134Z,6.99
2023-02-19T12:31:45.185Z,6.99
2023-02-19T12:32:45.186Z,6.86
2023-02-19T12:33:45.087Z,6.93
2023-02-19T12:34:45.150Z,6.91
2023-02-19T12:35:45.076Z,6.96
2023-02-19T12:36:45.066Z,6.93
2023-02-19T12:37:45.112Z,6.97
2023-02-19T12:38:45.078Z,6.91
2023-02-19T12:39:45.020Z,6.89
2023-02-19T12:40:45.005Z,6.89
2023-02-19T12:41:44.999Z,6.91
2023-02-19T12:42:44.964Z,6.89
2023-02-19T12:43:44.942Z,6.83
2023-02-19T12:44:44.931Z,6.75
2023-02-19T12:45:44.967Z,6.69
2023-02-19T12:46:44.902Z,6.72
2023-02-19T12:47:44.901Z,6.76
2023-02-19T12:48:44.878Z,6.83
2023-02-19T12:49:47.110Z,6.79
2023-02-19T12:50:44.842Z,6.73
2023-02-19T12:51:44.856Z,6.76
2023-02-19T12:52:44.825Z,6.65
2023-02-19T12:53:44.835Z,6.60
2023-02-19T12:54:44.845Z,6.55
2023-02-19T12:55:44.823Z,6.54
2023-02-19T12:56:44.782Z,6.53
2023-02-19T12:57:44.793Z,6.53
2023-02-19T12:58:44.754Z,6.48
2023-02-19T12:59:44.743Z,6.48
2023-02-19T13:00:44.732Z,6.51
2023-02-19T13:01:44.782Z,6.53
2023-02-19T13:02:44.723Z,6.55
2023-02-19T13:03:44.703Z,6.54
2023-02-19T13:04:44.714Z,6.50
2023-02-19T13:05:44.674Z,6.50
2023-02-19T13:06:44.681Z,6.48
2023-02-19T13:07:44.665Z,6.42
2023-02-19T13:09:04.748Z,6.42
2023-02-19T13:09:45.691Z,6.38
2023-02-19T13:10:44.617Z,6.39
2023-02-19T13:11:44.643Z,6.38
2023-02-19T13:12:44.582Z,6.35
2023-02-19T13:13:44.574Z,6.35
2023-02-19T13:14:44.802Z,6.42
2023-02-19T13:15:44.553Z,6.48
2023-02-19T13:16:44.560Z,6.58
2023-02-19T13:17:44.617Z,6.63
2023-02-19T13:18:44.540Z,6.68
2023-02-19T13:19:44.519Z,6.72
2023-02-19T13:20:44.487Z,6.82
2023-02-19T13:21:44.498Z,6.82
2023-02-19T13:22:44.460Z,6.93
2023-02-19T13:23:44.486Z,6.97